KTEB

Teterboro Airport

Teterboro, New Jersey, USA
METAR KTEB 181451Z 32010G17KT 10SM CLR M04/M13 A3005 RMK AO2 SLP177 T10391128 56014
Observed Flight Rules
Jan-18 @ 14:51 UTC (46 minutes ago) Visual Flight Rules
Wind Visibility Clouds
320° at 10 knots
 Gusting to 17 knots
10 miles
  • Clear skies
Temperatures Readings
Current -4°C / 25°F
Dewpoint -13°C / 9°F
Humidity 50%
Altimeter 30.05" Hg
Pressure 1017.7 hPa
Elevation 7
METAR KTEB 181451Z 32010G17KT 10SM CLR M04/M13 A3005 RMK AO2 SLP177 T10391128 56014
Observed Flight Rules
Jan-18 @ 14:51 UTC
(46 minutes ago)
VFR
Wind Visibility
320° at 10 knots
 Gusting to 17 knots
10 miles
Clouds
  • Clear skies
Temperature Dewpoint
-4°C / 25°F -13°C / 9°F
Humidity Altimeter Pressure
50% 30.05" Hg 1017.7 hPa